Time;durP1;ratioP1;P1;durP2;ratioP2;P2;SDS_P1;SDS_P2;PMS_P1;PMS_P2;Temp;Humidity;BMP_temperature;BMP_pressure;BME280_temperature;BME280_humidity;BME280_pressure;Samples;Min_cycle;Max_cycle;Signal;HPM_P1;HPM_P2
2021/06/09 00:02:14;;;;;;;;;;;;;;;-142.75;60.58;77534.97;5035692;28;20026;-75
2021/06/09 00:04:40;;;;;;;12.60;8.90;;;;;;;-142.75;60.70;77527.09;5035172;28;20016;-77
2021/06/09 00:07:05;;;;;;;;;;;;;;;-142.75;60.30;77527.09;5013297;28;20044;-76
2021/06/09 00:09:30;;;;;;;11.57;8.32;;;;;;;-142.75;60.25;77513.31;5041903;28;21340;-76
2021/06/09 00:11:56;;;;;;;11.40;9.05;;;;;;;-142.75;59.65;77509.38;5024361;28;20482;-75
2021/06/09 00:14:21;;;;;;;;;;;;;;;-142.75;59.69;77503.47;5038662;28;20021;-76
2021/06/09 00:16:46;;;;;;;12.93;8.93;;;;;;;-142.75;60.28;77493.63;5042966;28;20346;-76
2021/06/09 00:19:13;;;;;;;;;;;;;;;-142.75;59.97;77501.50;5041867;28;20028;-76
2021/06/09 00:21:38;;;;;;;11.05;8.70;;;;;;;-142.75;60.00;77503.47;5031561;28;19913;-76
2021/06/09 00:24:05;;;;;;;12.18;8.55;;;;;;;-142.75;59.88;77503.47;5037462;28;20465;-75
2021/06/09 00:26:30;;;;;;;17.00;9.98;;;;;;;-142.75;60.13;77517.25;5023821;28;20545;-76
2021/06/09 00:28:56;;;;;;;13.60;10.00;;;;;;;-142.75;59.88;77519.22;5031724;28;20108;-75
2021/06/09 00:31:21;;;;;;;;;;;;;;;-142.75;59.57;77515.28;5034978;28;20017;-76
2021/06/09 00:33:46;;;;;;;20.35;9.98;;;;;;;-142.75;60.37;77493.63;5040155;28;19920;-76
2021/06/09 00:36:12;;;;;;;;;;;;;;;-142.75;60.05;77489.69;5029329;28;20017;-74
2021/06/09 00:38:37;;;;;;;12.18;10.13;;;;;;;-142.75;59.96;77487.72;5023873;28;19913;-75
2021/06/09 00:41:03;;;;;;;;;;;;;;;-142.75;60.56;77499.53;5040596;28;20024;-75
2021/06/09 00:43:33;;;;;;;13.95;9.88;;;;;;;-142.75;60.89;77515.28;5012392;28;20000;-75
2021/06/09 00:46:02;;;;;;;12.38;9.77;;;;;;;-142.75;61.04;77536.94;5041519;28;20097;-75
2021/06/09 00:48:30;;;;;;;12.63;9.75;;;;;;;-142.75;61.37;77544.81;5038392;28;20025;-76
2021/06/09 00:51:02;;;;;;;12.65;10.30;;;;;;;-142.75;61.53;77548.75;5027383;28;20025;-74
2021/06/09 00:53:40;;;;;;;13.23;9.85;;;;;;;-142.75;61.82;77558.59;5043804;28;20056;-74
2021/06/09 00:56:08;;;;;;;13.75;9.82;;;;;;;-142.75;62.13;77558.59;5021139;28;20025;-76
2021/06/09 00:58:34;;;;;;;15.90;10.38;;;;;;;-142.75;62.41;77562.53;5020361;28;20080;-76
2021/06/09 01:01:00;;;;;;;;;;;;;;;-142.75;62.32;77560.56;5030427;28;20104;-75
2021/06/09 01:03:26;;;;;;;13.68;9.98;;;;;;;-142.75;62.40;77558.59;5031737;28;20353;-75
2021/06/09 01:05:52;;;;;;;14.02;11.18;;;;;;;-142.75;62.36;77546.78;5021848;28;20021;-76
2021/06/09 01:08:17;;;;;;;15.85;12.02;;;;;;;-142.75;62.58;77538.91;5026028;28;20108;-76
2021/06/09 01:10:49;;;;;;;;;;;;;;;-142.75;62.12;77538.91;5047375;28;20051;-75
2021/06/09 01:13:23;;;;;;;13.30;10.85;;;;;;;-142.75;62.24;77540.88;5043685;28;19913;-76
2021/06/09 01:15:49;;;;;;;13.27;10.85;;;;;;;-142.75;62.71;77554.66;5014948;28;20025;-76
2021/06/09 01:18:15;;;;;;;13.07;10.63;;;;;;;-142.75;62.91;77556.63;5047423;28;20021;-74
2021/06/09 01:20:40;;;;;;;;;;;;;;;-142.75;63.31;77568.44;5039865;28;20018;-76
2021/06/09 01:23:06;;;;;;;11.95;9.60;;;;;;;-142.75;63.08;77574.34;5014594;28;19916;-75
2021/06/09 01:25:32;;;;;;;;;;;;;;;-142.75;63.36;77574.34;5029428;28;20037;-76
2021/06/09 01:27:57;;;;;;;19.15;13.52;;;;;;;-142.75;63.69;77570.41;5048615;28;19919;-76
2021/06/09 01:30:22;;;;;;;;;;;;;;;-142.75;63.62;77566.47;5036551;28;20056;-75
2021/06/09 01:32:49;;;;;;;18.58;14.27;;;;;;;-142.75;63.98;77552.69;5042027;28;19913;-76
2021/06/09 01:35:15;;;;;;;19.55;14.02;;;;;;;-142.75;64.23;77538.91;5022100;28;20483;-76
2021/06/09 01:37:41;;;;;;;20.13;13.27;;;;;;;-142.75;63.61;77540.88;5022085;28;20035;-77
2021/06/09 01:40:10;;;;;;;21.08;14.82;;;;;;;-142.75;63.34;77536.94;5047889;28;20028;-76
2021/06/09 01:42:36;;;;;;;20.15;14.20;;;;;;;-142.75;63.23;77531.03;5019949;28;20482;-76
2021/06/09 01:45:02;;;;;;;;;;;;;;;-142.75;63.23;77534.97;5046922;28;20040;-76
2021/06/09 01:47:27;;;;;;;18.50;14.40;;;;;;;-142.75;63.50;77529.06;5022281;28;19927;-76
2021/06/09 01:49:52;;;;;;;;;;;;;;;-142.75;63.66;77531.03;5014514;28;20029;-75
2021/06/09 01:52:18;;;;;;;16.42;13.00;;;;;;;-142.75;63.67;77542.84;5042935;28;19916;-75
2021/06/09 01:54:45;;;;;;;18.40;13.20;;;;;;;-142.75;63.64;77554.66;5030003;28;20112;-76
2021/06/09 01:57:12;;;;;;;14.07;11.10;;;;;;;-142.75;63.69;77562.53;5038650;28;20029;-75
2021/06/09 01:59:37;;;;;;;17.98;12.82;;;;;;;-142.75;64.05;77566.47;5039761;28;20487;-76
2021/06/09 02:02:03;;;;;;;14.73;12.07;;;;;;;-142.75;64.07;77570.41;5015514;28;20018;-76
2021/06/09 02:04:28;;;;;;;;;;;;;;;-142.75;63.66;77570.41;5022023;28;20054;-77
2021/06/09 02:06:55;;;;;;;15.48;12.68;;;;;;;-142.75;63.94;77570.41;5048396;28;20046;-76
2021/06/09 02:09:21;;;;;;;21.40;15.02;;;;;;;-142.75;64.07;77568.44;5031951;28;20068;-76
2021/06/09 02:11:48;;;;;;;18.48;14.10;;;;;;;-142.75;64.13;77570.41;5013179;28;20060;-75
2021/06/09 02:14:15;;;;;;;19.85;14.68;;;;;;;-142.75;64.27;77572.38;5048595;28;20029;-76
2021/06/09 02:16:43;;;;;;;21.92;14.23;;;;;;;-142.75;64.87;77574.34;5019614;28;20419;-75
2021/06/09 02:19:09;;;;;;;19.70;14.80;;;;;;;-142.75;65.99;77550.72;5022084;28;20020;-75
2021/06/09 02:21:36;;;;;;;17.55;14.20;;;;;;;-142.75;65.37;77560.56;5010967;28;20055;-75
2021/06/09 02:24:03;;;;;;;18.17;15.02;;;;;;;-142.75;65.65;77552.69;5036921;28;20036;-75
2021/06/09 02:26:29;;;;;;;21.55;16.63;;;;;;;-142.75;65.23;77558.59;5027460;28;20036;-75
2021/06/09 02:28:55;;;;;;;23.88;17.20;;;;;;;-142.75;64.99;77572.38;5017518;28;20030;-75
2021/06/09 02:31:21;;;;;;;23.98;19.08;;;;;;;-142.75;66.13;77576.31;5016484;28;20100;-76
2021/06/09 02:33:46;;;;;;;26.25;20.27;;;;;;;-142.75;66.21;77578.28;5047800;28;20017;-76
2021/06/09 02:36:11;;;;;;;;;;;;;;;-142.75;66.05;77582.22;5032843;28;20032;-74
2021/06/09 02:38:41;;;;;;;27.20;17.95;;;;;;;-142.75;65.61;77586.16;5012470;28;19912;-75
2021/06/09 02:41:07;;;;;;;24.55;16.55;;;;;;;-142.75;65.37;77594.03;5030694;28;20075;-76
2021/06/09 02:43:33;;;;;;;17.27;15.02;;;;;;;-142.75;65.43;77601.91;5029674;28;20025;-75
2021/06/09 02:46:13;;;;;;;21.27;15.98;;;;;;;-142.75;66.80;77570.41;5042272;28;20552;-75
2021/06/09 02:48:58;;;;;;;23.35;15.95;;;;;;;-142.75;66.33;77554.66;5044990;28;20144;-76
2021/06/09 02:51:27;;;;;;;17.55;13.38;;;;;;;-142.75;64.96;77586.16;5033768;28;20064;-74
2021/06/09 02:54:08;;;;;;;22.50;17.92;;;;;;;-142.75;65.63;77605.84;5020629;28;20438;-75
2021/06/09 02:56:52;;;;;;;23.80;17.92;;;;;;;-142.75;65.87;77617.66;5031965;28;20025;-76
2021/06/09 02:59:29;;;;;;;21.95;16.00;;;;;;;-142.75;65.62;77621.59;5039288;28;20024;-74
2021/06/09 03:02:21;;;;;;;24.02;17.00;;;;;;;-142.75;65.51;77629.47;5031053;28;20029;-75
2021/06/09 03:04:51;;;;;;;21.80;16.25;;;;;;;-142.75;65.51;77633.41;5018754;28;20412;-75
2021/06/09 03:07:30;;;;;;;21.85;16.85;;;;;;;-142.75;65.71;77635.38;5051196;28;20033;-75
2021/06/09 03:10:02;;;;;;;19.48;16.17;;;;;;;-142.75;65.63;77635.38;5051833;28;20028;-75
2021/06/09 03:12:36;;;;;;;21.92;14.93;;;;;;;-142.75;65.40;77637.34;5031374;28;20102;-75
2021/06/09 03:15:12;;;;;;;19.38;15.38;;;;;;;-142.75;65.57;77643.25;5051753;28;20482;-76
2021/06/09 03:17:56;;;;;;;20.88;15.68;;;;;;;-142.75;65.97;77649.16;5051281;28;20383;-76
2021/06/09 03:20:51;;;;;;;22.05;15.52;;;;;;;-142.75;66.28;77647.19;5051473;28;20093;-76
2021/06/09 03:23:33;;;;;;;20.60;16.52;;;;;;;-142.75;66.07;77653.09;5033492;28;20128;-75
2021/06/09 03:26:09;;;;;;;21.88;16.40;;;;;;;-142.75;66.08;77653.09;5022841;28;20438;-75
2021/06/09 03:28:44;;;;;;;21.17;16.23;;;;;;;-142.75;65.75;77649.16;5031368;28;20017;-75
2021/06/09 03:31:15;;;;;;;22.67;16.77;;;;;;;-142.75;66.17;77645.22;5013615;28;20113;-76
2021/06/09 03:33:43;;;;;;;24.13;17.85;;;;;;;-142.75;66.02;77643.25;5044127;28;20021;-75
2021/06/09 03:36:13;;;;;;;20.70;16.27;;;;;;;-142.75;66.20;77641.28;5033734;28;20024;-75
2021/06/09 03:38:48;;;;;;;21.05;15.38;;;;;;;-142.75;65.92;77645.22;5050924;28;20021;-75
2021/06/09 03:41:16;;;;;;;23.30;18.05;;;;;;;-142.75;65.93;77639.31;5043695;28;20028;-75
2021/06/09 03:43:47;;;;;;;22.25;17.10;;;;;;;-142.75;65.96;77629.47;5013398;28;20032;-75
2021/06/09 03:46:15;;;;;;;23.08;18.30;;;;;;;-142.75;66.24;77627.50;5013581;28;20051;-75
2021/06/09 03:48:41;;;;;;;29.23;19.08;;;;;;;-142.75;66.57;77627.50;5031033;28;20021;-76
2021/06/09 03:51:09;;;;;;;27.48;20.10;;;;;;;-142.75;67.37;77619.63;5029717;28;20112;-76
2021/06/09 03:53:38;;;;;;;31.63;23.38;;;;;;;-142.75;67.57;77611.75;5029663;28;20483;-77
2021/06/09 03:56:06;;;;;;;26.40;21.13;;;;;;;-142.75;67.32;77605.84;5029386;28;20017;-75
2021/06/09 03:58:33;;;;;;;25.75;20.65;;;;;;;-142.75;67.13;77594.03;5041776;28;20059;-76
2021/06/09 04:00:59;;;;;;;26.58;21.83;;;;;;;-142.75;66.93;77582.22;5050313;28;20074;-74
2021/06/09 04:03:26;;;;;;;28.42;21.20;;;;;;;-142.75;66.58;77576.31;5033158;28;20017;-75
2021/06/09 04:05:53;;;;;;;27.13;20.85;;;;;;;-142.75;66.36;77572.38;5031573;28;20029;-76
2021/06/09 04:08:19;;;;;;;24.85;19.50;;;;;;;-142.75;66.28;77566.47;5050230;28;20103;-74
2021/06/09 04:10:47;;;;;;;;;;;;;;;-142.75;66.76;77556.63;5024649;28;20021;-76
2021/06/09 04:13:14;;;;;;;23.55;17.85;;;;;;;-142.75;66.92;77531.03;5012950;28;19913;-76
2021/06/09 04:15:40;;;;;;;23.33;19.48;;;;;;;-142.75;66.63;77507.41;5048935;28;20104;-75
2021/06/09 04:18:06;;;;;;;;;;;;;;;-142.75;66.37;77497.56;5043186;28;20025;-76
2021/06/09 04:20:32;;;;;;;25.05;17.77;;;;;;;-142.75;66.48;77503.47;5030360;28;19967;-75
2021/06/09 04:22:58;;;;;;;;;;;;;;;-142.75;66.45;77497.56;5029207;28;20052;-76
2021/06/09 04:25:24;;;;;;;28.13;21.05;;;;;;;-142.75;65.98;77487.72;5029931;28;20342;-75
2021/06/09 04:27:50;;;;;;;;;;;;;;;-142.75;65.58;77475.91;5030678;28;20033;-76
2021/06/09 04:30:18;;;;;;;28.67;22.40;;;;;;;-142.75;65.20;77462.13;5012598;28;20372;-75
2021/06/09 04:32:47;;;;;;;30.83;20.95;;;;;;;-142.75;64.96;77456.22;5023843;28;20029;-76
2021/06/09 04:35:13;;;;;;;32.15;24.33;;;;;;;-142.75;65.05;77460.13;5030040;28;20395;-76
2021/06/09 04:37:38;;;;;;;35.08;23.98;;;;;;;-142.75;65.06;77452.25;5015947;28;20032;-75
2021/06/09 04:40:04;;;;;;;;;;;;;;;-142.75;64.97;77456.22;5017677;28;20105;-76
2021/06/09 04:42:29;;;;;;;34.33;23.92;;;;;;;-142.75;65.03;77442.41;5030285;28;20000;-75
2021/06/09 04:44:55;;;;;;;;;;;;;;;-142.75;65.05;77456.22;5015889;28;20021;-75
2021/06/09 04:47:20;;;;;;;44.25;29.23;;;;;;;-142.75;65.32;77450.28;5028125;28;20340;-75
2021/06/09 04:49:45;;;;;;;;;;;;;;;-142.75;65.83;77430.59;5020244;28;20482;-76
2021/06/09 04:52:13;;;;;;;40.70;29.90;;;;;;;-142.75;65.56;77406.97;5013809;28;19999;-76
2021/06/09 04:54:39;;;;;;;39.45;27.55;;;;;;;-142.75;65.62;77397.13;5014621;28;20029;-76
2021/06/09 04:57:06;;;;;;;42.15;28.92;;;;;;;-142.75;65.52;77383.34;5029760;28;20032;-76
2021/06/09 04:59:31;;;;;;;39.47;29.02;;;;;;;-142.75;65.75;77377.44;5049941;28;20025;-76
2021/06/09 05:01:57;;;;;;;;;;;;;;;-142.75;66.01;77353.81;5051911;28;20024;-76
2021/06/09 05:04:22;;;;;;;40.13;29.25;;;;;;;-142.75;66.07;77320.34;5053342;23;19943;-74
2021/06/09 05:06:47;;;;;;;;;;;;;;;-142.75;65.18;77302.63;5029953;28;20491;-73
2021/06/09 05:09:13;;;;;;;46.80;32.88;;;;;;;-142.75;64.74;77288.84;5012761;28;19991;-73
2021/06/09 05:11:41;;;;;;;;;;;;;;;-142.75;64.05;77269.16;5032300;28;20026;-73
2021/06/09 05:14:14;;;;;;;47.38;33.53;;;;;;;-142.75;63.42;77255.38;5033328;28;19939;-74
2021/06/09 05:16:42;;;;;;;46.90;32.53;;;;;;;-142.75;63.21;77239.63;5033013;28;20071;-74
2021/06/09 05:19:09;;;;;;;45.42;31.45;;;;;;;-142.75;63.40;77216.00;5051201;28;20021;-74
2021/06/09 05:21:38;;;;;;;40.58;31.10;;;;;;;-142.75;63.23;77206.16;5033287;28;20066;-74
2021/06/09 05:24:05;;;;;;;41.30;30.60;;;;;;;-142.75;63.08;77192.38;5033455;28;20479;-74
2021/06/09 05:26:31;;;;;;;44.78;31.27;;;;;;;-142.75;62.65;77184.50;5050610;28;20028;-75
2021/06/09 05:29:02;;;;;;;45.28;32.15;;;;;;;-142.75;62.54;77180.56;5051254;28;20105;-73
2021/06/09 05:31:29;;;;;;;42.17;30.40;;;;;;;-142.75;62.00;77156.94;5051375;28;20630;-73
2021/06/09 05:33:55;;;;;;;42.78;29.73;;;;;;;-142.75;61.35;77145.13;5050788;28;20033;-72
2021/06/09 05:36:21;;;;;;;41.13;29.92;;;;;;;-142.75;60.82;77129.38;5050871;28;20021;-72
2021/06/09 05:38:46;;;;;;;38.45;28.67;;;;;;;-142.75;60.44;77115.59;5049787;28;20036;-72
2021/06/09 05:41:12;;;;;;;;;;;;;;;-142.75;59.73;77095.91;5047609;28;20017;-72
2021/06/09 05:43:39;;;;;;;41.03;30.85;;;;;;;-142.75;61.14;77068.34;5032826;28;19913;-72
2021/06/09 05:46:09;;;;;;;41.17;30.52;;;;;;;-142.75;61.03;77048.66;5032056;28;20032;-72
2021/06/09 05:48:43;;;;;;;36.85;27.92;;;;;;;-142.75;59.10;77019.13;5050308;28;20025;-72
2021/06/09 05:51:10;;;;;;;36.95;27.67;;;;;;;-142.75;59.14;76973.84;5031684;28;20025;-72
2021/06/09 05:53:35;;;;;;;38.53;28.25;;;;;;;-142.75;58.48;76936.44;5039415;28;20029;-73
2021/06/09 05:56:01;;;;;;;37.72;26.52;;;;;;;-142.75;57.54;76906.91;5032431;28;20140;-72
2021/06/09 05:58:27;;;;;;;31.60;25.33;;;;;;;-142.75;56.59;76893.13;5030483;28;20034;-73
2021/06/09 06:00:56;;;;;;;33.85;26.92;;;;;;;-142.75;56.21;76885.25;5030118;28;20018;-73
2021/06/09 06:03:23;;;;;;;35.22;25.58;;;;;;;-142.75;55.98;76871.47;5012341;28;20367;-73
2021/06/09 06:05:54;;;;;;;32.90;24.52;;;;;;;-142.75;56.23;76861.63;5029427;28;20055;-73
2021/06/09 06:08:20;;;;;;;34.15;25.73;;;;;;;-142.75;56.23;76847.84;5030029;28;20080;-73
2021/06/09 06:10:45;;;;;;;35.25;25.17;;;;;;;-142.75;56.60;76826.19;5049911;28;20045;-73
2021/06/09 06:13:12;;;;;;;32.42;24.98;;;;;;;-142.75;53.75;76798.66;5032933;28;20475;-72
2021/06/09 06:15:38;;;;;;;30.38;23.35;;;;;;;-142.75;53.41;76761.25;5032056;28;20025;-76
2021/06/09 06:18:03;;;;;;;32.10;23.80;;;;;;;-142.75;53.20;76721.88;5050770;28;20032;-73
2021/06/09 06:20:29;;;;;;;30.13;22.80;;;;;;;-142.75;52.39;76692.34;5035277;28;20021;-73
2021/06/09 06:22:55;;;;;;;30.15;22.30;;;;;;;-142.75;51.47;76670.69;5031045;28;20032;-74
2021/06/09 06:25:23;;;;;;;30.60;22.95;;;;;;;-142.75;51.58;76641.16;5034789;28;20018;-73
2021/06/09 06:27:54;;;;;;;30.45;23.05;;;;;;;-142.75;50.46;76621.47;5051327;28;20036;-73
2021/06/09 06:30:22;;;;;;;30.35;23.40;;;;;;;-142.75;50.68;76603.75;5036207;28;20021;-73
2021/06/09 06:32:51;;;;;;;30.98;21.80;;;;;;;-142.75;50.35;76593.91;5053709;28;20080;-72
2021/06/09 06:35:19;;;;;;;30.40;21.42;;;;;;;-142.75;49.89;76593.91;5053222;28;20021;-72
2021/06/09 06:37:47;;;;;;;26.60;20.35;;;;;;;-142.75;48.52;76554.53;5054144;28;20028;-73
2021/06/09 06:40:12;;;;;;;29.42;21.55;;;;;;;-142.75;49.48;76521.09;5035753;28;20074;-74
2021/06/09 06:42:38;;;;;;;29.27;22.02;;;;;;;-142.75;48.25;76487.63;5037716;28;20483;-74
2021/06/09 06:45:05;;;;;;;26.75;20.38;;;;;;;-142.75;47.67;76467.94;5044527;28;20382;-74
2021/06/09 06:47:30;;;;;;;32.05;20.48;;;;;;;-142.75;47.99;76438.41;5024425;28;20056;-74
2021/06/09 06:49:59;;;;;;;25.33;20.15;;;;;;;-142.75;46.53;76397.06;5036352;28;20033;-73
2021/06/09 06:52:32;;;;;;;26.00;21.13;;;;;;;-142.75;47.23;76369.50;5053405;28;20029;-74
2021/06/09 06:55:03;;;;;;;28.25;20.65;;;;;;;-142.75;45.52;76330.16;5050072;28;20036;-74
2021/06/09 06:57:34;;;;;;;25.75;20.15;;;;;;;-142.75;45.76;76312.44;5028103;28;20037;-74
2021/06/09 07:00:03;;;;;;;27.80;19.80;;;;;;;-142.75;43.94;76282.91;5049450;28;20035;-73
2021/06/09 07:02:30;;;;;;;22.15;18.20;;;;;;;-142.75;44.97;76259.28;5051103;28;20021;-74
2021/06/09 07:04:55;;;;;;;27.38;19.13;;;;;;;-142.75;44.29;76223.84;5046543;28;20032;-74
2021/06/09 07:07:21;;;;;;;27.55;19.38;;;;;;;-142.75;43.15;76188.44;5044486;28;20029;-73
2021/06/09 07:09:47;;;;;;;27.20;19.10;;;;;;;-142.75;41.87;76174.66;5026686;28;20501;-75
2021/06/09 07:12:13;;;;;;;26.63;18.52;;;;;;;-142.75;40.49;76149.06;5021176;28;20480;-73
2021/06/09 07:14:41;;;;;;;25.48;18.88;;;;;;;-142.75;41.04;76093.94;5037460;28;20021;-74
2021/06/09 07:17:09;;;;;;;25.15;18.20;;;;;;;-142.75;41.20;76082.13;5047768;28;20033;-73
2021/06/09 07:19:36;;;;;;;29.48;18.73;;;;;;;-142.75;39.66;76068.38;5038167;28;20017;-74
2021/06/09 07:22:01;;;;;;;23.45;17.02;;;;;;;-142.75;39.67;76066.41;5039087;28;20514;-74
2021/06/09 07:24:27;;;;;;;24.73;19.23;;;;;;;-142.75;40.41;76088.03;5029825;28;20017;-74
2021/06/09 07:26:53;;;;;;;26.73;19.02;;;;;;;-142.75;41.24;76111.66;5017152;28;20028;-74
2021/06/09 07:29:22;;;;;;;23.80;19.10;;;;;;;-142.75;40.54;76105.75;5037810;28;20017;-74
2021/06/09 07:31:49;;;;;;;26.40;17.92;;;;;;;-142.75;40.88;76093.94;5047225;28;20021;-74
2021/06/09 07:34:15;;;;;;;26.13;17.38;;;;;;;-142.75;40.07;76056.56;5036683;28;20064;-74
2021/06/09 07:37:04;;;;;;;22.25;16.08;;;;;;;-142.75;39.99;76003.41;5055163;28;20064;-73
2021/06/09 07:39:34;;;;;;;26.90;16.85;;;;;;;-142.75;39.53;75979.78;5026590;28;20014;-73
2021/06/09 07:42:04;;;;;;;23.70;15.98;;;;;;;-142.75;38.60;75942.41;5050501;28;20021;-74
2021/06/09 07:44:36;;;;;;;23.40;16.45;;;;;;;-142.75;38.24;75905.00;5054715;28;20025;-75
2021/06/09 07:47:08;;;;;;;24.02;16.65;;;;;;;-142.75;38.26;75871.53;5020097;28;20018;-75
2021/06/09 07:49:36;;;;;;;25.92;17.25;;;;;;;-142.75;37.98;75810.53;5040793;28;20029;-74
2021/06/09 07:52:02;;;;;;;22.60;15.68;;;;;;;-142.75;36.86;75786.91;5031670;28;20761;-74
2021/06/09 07:54:28;;;;;;;24.42;16.00;;;;;;;-142.75;35.74;75735.75;5051259;28;20036;-75
2021/06/09 07:56:55;;;;;;;23.25;15.52;;;;;;;-142.75;35.51;75676.69;5047037;28;20410;-75
2021/06/09 07:59:20;;;;;;;20.75;14.55;;;;;;;-142.75;35.00;75633.41;5035778;28;20028;-74
2021/06/09 08:01:47;;;;;;;21.25;15.32;;;;;;;-142.75;34.04;75594.06;5041136;28;20025;-74
2021/06/09 08:04:14;;;;;;;23.23;14.70;;;;;;;-142.75;33.07;75562.56;5039930;28;20056;-74
2021/06/09 08:06:42;;;;;;;20.95;15.10;;;;;;;-142.75;31.51;75535.00;5020914;28;20379;-75
2021/06/09 08:09:08;;;;;;;20.10;14.45;;;;;;;-142.75;31.33;75535.00;5046445;28;20021;-75
2021/06/09 08:11:35;;;;;;;19.60;14.25;;;;;;;-142.75;31.77;75501.56;5026792;28;20124;-74
2021/06/09 08:14:01;;;;;;;23.90;14.68;;;;;;;-142.75;32.95;75468.09;5042848;28;20029;-73
2021/06/09 08:16:28;;;;;;;18.48;13.80;;;;;;;-142.75;32.68;75474.00;5043412;28;20029;-74
2021/06/09 08:18:54;;;;;;;21.80;13.75;;;;;;;-142.75;32.08;75464.16;5053189;28;20040;-73
2021/06/09 08:21:23;;;;;;;21.67;13.38;;;;;;;-142.75;32.14;75450.38;5029092;28;20507;-74
2021/06/09 08:23:50;;;;;;;17.23;13.30;;;;;;;-142.75;31.31;75452.34;5046116;28;20026;-74
2021/06/09 08:26:18;;;;;;;17.20;11.95;;;;;;;-142.75;31.45;75462.19;5033022;28;20033;-74
2021/06/09 08:28:45;;;;;;;18.33;12.68;;;;;;;-142.75;33.09;75472.03;5035809;28;20124;-73
2021/06/09 08:31:13;;;;;;;18.55;11.88;;;;;;;-142.75;31.63;75452.34;5045988;28;20029;-73
2021/06/09 08:33:41;;;;;;;19.63;13.55;;;;;;;-142.75;32.71;75440.53;5051054;28;20021;-71
2021/06/09 08:36:10;;;;;;;21.63;13.55;;;;;;;-142.75;31.89;75432.69;5033774;28;20108;-73
2021/06/09 08:38:36;;;;;;;19.70;12.50;;;;;;;-142.75;30.82;75407.09;5034025;28;20032;-73
2021/06/09 08:41:03;;;;;;;18.67;13.65;;;;;;;-142.75;30.76;75377.56;5047980;28;20017;-76
2021/06/09 08:43:32;;;;;;;23.08;13.40;;;;;;;-142.75;31.30;75330.34;5024828;28;20439;-73
2021/06/09 08:45:57;;;;;;;18.13;12.43;;;;;;;-142.75;30.89;75318.53;5030840;28;20025;-73
2021/06/09 08:48:23;;;;;;;15.55;11.70;;;;;;;-142.75;30.07;75304.75;5043805;28;20031;-75
2021/06/09 08:50:48;;;;;;;19.25;13.88;;;;;;;-142.75;31.33;75294.94;5047860;28;20053;-74
2021/06/09 08:53:19;;;;;;;21.52;14.48;;;;;;;-142.75;29.08;75306.72;5040844;28;20033;-75
2021/06/09 08:55:45;;;;;;;23.02;12.85;;;;;;;-142.75;30.30;75287.06;5034406;28;20028;-74
2021/06/09 08:58:12;;;;;;;17.58;12.30;;;;;;;-142.75;29.43;75253.59;5044801;28;20375;-74
2021/06/09 09:00:40;;;;;;;17.90;11.82;;;;;;;-142.75;29.60;75251.63;5052280;28;20025;-73
2021/06/09 09:03:06;;;;;;;16.42;9.98;;;;;;;-142.75;29.43;75208.34;5041621;28;20021;-75
2021/06/09 09:05:32;;;;;;;12.48;7.35;;;;;;;-142.75;28.92;75216.22;5046372;28;20024;-73
2021/06/09 09:07:57;;;;;;;10.80;6.70;;;;;;;-142.75;28.64;75161.13;5019159;28;20032;-75
2021/06/09 09:10:24;;;;;;;11.05;6.13;;;;;;;-142.75;29.01;75180.78;5044961;28;20029;-74
2021/06/09 09:12:50;;;;;;;13.95;7.82;;;;;;;-142.75;29.80;75184.72;5031067;28;20021;-75
2021/06/09 09:15:16;;;;;;;15.43;8.85;;;;;;;-142.75;28.97;75117.81;5033872;28;20021;-75
2021/06/09 09:17:58;;;;;;;12.73;8.20;;;;;;;-142.75;27.39;75137.50;5023357;28;20112;-73
2021/06/09 09:20:25;;;;;;;16.25;9.02;;;;;;;-142.75;28.33;75113.88;5024067;28;20036;-74
2021/06/09 09:22:53;;;;;;;19.67;9.43;;;;;;;-142.75;28.33;75121.75;5033752;28;20045;-74
2021/06/09 09:25:20;;;;;;;13.20;7.60;;;;;;;-142.75;28.22;75109.94;5035888;28;20017;-75
2021/06/09 09:28:16;;;;;;;11.82;8.48;;;;;;;-142.75;29.79;75192.59;5040269;28;20036;-75
2021/06/09 09:30:46;;;;;;;14.38;9.52;;;;;;;-142.75;28.01;75161.13;5049216;28;20032;-75
2021/06/09 09:33:20;;;;;;;14.65;9.07;;;;;;;-142.75;28.58;75137.50;5044569;28;20075;-75
2021/06/09 09:35:48;;;;;;;13.88;8.32;;;;;;;-142.75;28.24;75109.94;5017354;28;20227;-74
2021/06/09 09:38:22;;;;;;;16.08;7.32;;;;;;;-142.75;27.84;75094.22;5045310;28;20513;-75
2021/06/09 09:41:06;;;;;;;13.82;8.10;;;;;;;-142.75;28.20;75086.34;5043595;28;20104;-75
2021/06/09 09:43:46;;;;;;;12.25;7.43;;;;;;;-142.75;28.37;75208.34;5046249;28;20383;-74
2021/06/09 09:46:15;;;;;;;14.27;8.85;;;;;;;-142.75;29.74;75125.69;5050064;28;20024;-75
2021/06/09 09:48:42;;;;;;;11.82;8.38;;;;;;;-142.75;28.65;75153.25;5046199;28;20099;-75
2021/06/09 09:51:10;;;;;;;8.38;6.25;;;;;;;-142.75;28.49;75064.69;5036982;28;20550;-73
2021/06/09 09:53:35;;;;;;;9.85;7.70;;;;;;;-142.75;27.25;75046.97;5031668;28;20108;-75
2021/06/09 09:56:17;;;;;;;11.02;6.78;;;;;;;-142.75;26.75;75107.97;5014547;28;20117;-75
2021/06/09 09:59:05;;;;;;;12.23;7.07;;;;;;;-142.75;29.23;75050.91;5041950;28;20412;-74
2021/06/09 10:01:33;;;;;;;8.40;6.03;;;;;;;-142.75;27.24;75106.00;5050880;28;20028;-74
2021/06/09 10:03:59;;;;;;;12.05;7.05;;;;;;;-142.75;26.84;75184.72;5050398;28;20079;-75
2021/06/09 10:06:45;;;;;;;14.95;7.15;;;;;;;-142.75;27.59;75184.72;5044737;28;20057;-75
2021/06/09 10:09:16;;;;;;;10.45;6.97;;;;;;;-142.75;28.96;75131.59;5047189;28;20029;-76
2021/06/09 10:11:47;;;;;;;8.13;5.82;;;;;;;-142.75;28.46;75098.16;5043398;28;20037;-75
2021/06/09 10:14:17;;;;;;;13.18;5.72;;;;;;;-142.75;28.21;75161.13;5033759;28;20029;-75
2021/06/09 10:16:43;;;;;;;8.35;5.97;;;;;;;-142.75;28.03;75163.09;5032121;28;20084;-74
2021/06/09 10:19:12;;;;;;;10.13;7.50;;;;;;;-142.75;28.30;75168.97;5031614;28;20043;-75
2021/06/09 10:22:04;;;;;;;8.70;6.28;;;;;;;-142.75;29.11;75141.44;5050667;28;20022;-74
2021/06/09 10:24:41;;;;;;;7.43;5.22;;;;;;;-142.75;28.70;75068.63;5035560;28;20119;-73
2021/06/09 10:27:07;;;;;;;9.43;5.18;;;;;;;-142.75;28.11;75043.03;5048305;28;20029;-75
2021/06/09 10:29:34;;;;;;;8.25;5.88;;;;;;;-142.75;28.15;75048.94;5035018;28;20047;-75
2021/06/09 10:32:03;;;;;;;10.60;5.90;;;;;;;-142.75;27.49;75109.94;5052203;28;20360;-74
2021/06/09 10:34:32;;;;;;;13.05;5.60;;;;;;;-142.75;28.82;75161.13;5051237;28;20104;-74
2021/06/09 10:37:00;;;;;;;7.90;6.55;;;;;;;-142.75;28.10;75147.34;5050307;28;20033;-76
2021/06/09 10:39:28;;;;;;;11.40;8.20;;;;;;;-142.75;28.30;75196.53;5050322;28;20049;-75
2021/06/09 10:42:03;;;;;;;13.02;9.15;;;;;;;-142.75;29.82;75147.34;5050755;28;20021;-76
2021/06/09 10:44:33;;;;;;;17.30;13.55;;;;;;;-142.75;28.17;75147.34;5050278;28;20032;-76
2021/06/09 10:47:00;;;;;;;12.80;9.50;;;;;;;-142.75;29.06;75147.34;5050284;28;20028;-75
2021/06/09 10:49:31;;;;;;;10.43;8.38;;;;;;;-142.75;28.30;75125.69;5044435;28;20029;-75
2021/06/09 10:51:57;;;;;;;9.35;7.15;;;;;;;-142.75;29.77;75111.91;5042598;28;20597;-75
2021/06/09 10:54:24;;;;;;;10.15;8.13;;;;;;;-142.75;29.52;75117.81;5030703;28;20479;-75
2021/06/09 10:56:51;;;;;;;11.30;7.85;;;;;;;-142.75;29.31;75188.66;5039913;28;20497;-75
2021/06/09 10:59:26;;;;;;;8.60;6.10;;;;;;;-142.75;29.92;75208.34;5032867;28;20033;-74
2021/06/09 11:02:01;;;;;;;9.40;7.65;;;;;;;-142.75;28.88;75273.28;5050542;28;20028;-75
2021/06/09 11:04:34;;;;;;;12.95;9.55;;;;;;;-142.75;29.05;75291.00;5051716;28;20029;-74
2021/06/09 11:06:59;;;;;;;15.75;10.63;;;;;;;-142.75;29.95;75328.38;5036416;28;20054;-73
2021/06/09 11:09:28;;;;;;;18.25;11.70;;;;;;;-142.75;29.83;75411.03;5036240;28;20067;-74
2021/06/09 11:12:11;;;;;;;19.10;13.95;;;;;;;-142.75;31.33;75312.63;5055929;28;20032;-75
2021/06/09 11:14:53;;;;;;;15.63;11.45;;;;;;;-142.75;30.85;75304.75;5037662;28;20078;-74
2021/06/09 11:17:44;;;;;;;12.50;8.32;;;;;;;-142.75;31.58;75263.44;5054346;28;20101;-74
2021/06/09 11:20:11;;;;;;;12.40;8.15;;;;;;;-142.75;30.12;75271.31;5053781;28;20083;-74